Bradleyville, MO (65614)

6:03 PM CDT on July 30, 2016 (GMT -0500)
Skyline Drive - Forsyth, MO | | Change Station

Elev 906 ft 36.70 °N, 93.09 °W | Updated 3 minutes ago

Mostly Cloudy
Mostly Cloudy
87.4 °F
Feels Like 101 °F
N
1.0
Wind Variable Wind from SSW
Gusts 4.0 mph

Today
High -- | Low -- °F
--% Chance of Precip.
Yesterday
High -- | Low -- °F
Precip. -- in
Pressure 29.98 in
Visibility 10.0 miles
Clouds Few 6000 ft
Mostly Cloudy 15000 ft
Heat Index 101 °F
Dew Point 78 °F
Humidity 75%
Rainfall 0.00 in
Snow Depth Not available.
6:16 AM 8:19 PM
Waning Crescent, 10% visible
METAR KBBG 302245Z 20006KT 10SM FEW060 BKN150 27/22 A2998
Pressure 29.98 in
Visibility 10.0 miles
Clouds Few 6000 ft
Mostly Cloudy 15000 ft
Heat Index 101 °F
Dew Point 78 °F
Humidity 75%
Rainfall 0.00 in
Snow Depth Not available.
6:16 AM 8:19 PM
Waning Crescent, 10% visible
METAR KBBG 302245Z 20006KT 10SM FEW060 BKN150 27/22 A2998

10-Day Weather Forecast

Almanac

Astronomy

Jul. 30, 2016 Rise Set
Actual Time
Civil Twilight
Nautical Twilight
Astronomical Twilight
Moon
Length of Visible Light
Length of Day
Tomorrow will be .
, % of the Moon is Illuminated

Today's Extremes

State Highs State Lows

Community

WunderPhotos

Upload Photos

1,928,674 photos uploaded!

WunderBlog® & News

Nearby

Air Quality

  Air Quality AQ Index Pollutant
Not available.

Snow Depth

Station Depth Elevation

Earthquake Activity

City Distance Mag. Time & Date
Minimum magnitude displayed is 2.5.

Coastal Water Temperatures

Place Temperature

Stations

Nearby Weather Stations

Station Location Temp. Windchill Dew Point Humidity Wind Precip. Elev Updated Type
                   

Watches & Warnings

There are currently no watches in effect.